Time;durP1;ratioP1;P1;durP2;ratioP2;P2;SDS_P1;SDS_P2;PMS_P1;PMS_P2;Temp;Humidity;BMP_temperature;BMP_pressure;BME280_temperature;BME280_humidity;BME280_pressure;Samples;Min_cycle;Max_cycle;Signal;HPM_P1;HPM_P2
2023/12/27 00:00:04;;;;;;;7.93;2.00;;;;;;;;;;5072727;28;20447;-60
2023/12/27 00:02:31;;;;;;;3.50;0.87;;;;;;;;;;5072935;28;20950;-60
2023/12/27 00:04:58;;;;;;;3.80;0.90;;;;;;;;;;5072785;28;20479;-60
2023/12/27 00:07:24;;;;;;;8.30;1.60;;;;;;;;;;5072857;28;20448;-61
2023/12/27 00:09:53;;;;;;;5.37;1.67;;;;;;;;;;5072761;28;20538;-61
2023/12/27 00:12:20;;;;;;;6.87;1.30;;;;;;;;;;5072642;28;20555;-60
2023/12/27 00:14:47;;;;;;;6.93;1.63;;;;;;;;;;5072824;28;20536;-60
2023/12/27 00:17:13;;;;;;;9.40;1.93;;;;;;;;;;5072778;28;20471;-61
2023/12/27 00:19:40;;;;;;;5.70;1.10;;;;;;;;;;5072723;28;20515;-60
2023/12/27 00:22:07;;;;;;;7.00;1.30;;;;;;;;;;5072625;28;20443;-60
2023/12/27 00:24:34;;;;;;;4.10;1.00;;;;;;;;;;5072500;28;20908;-60
2023/12/27 00:27:03;;;;;;;1.93;1.10;;;;;;;;;;5072533;28;20439;-61
2023/12/27 00:29:30;;;;;;;2.73;1.13;;;;;;;;;;5072534;28;20449;-60
2023/12/27 00:31:57;;;;;;;3.00;1.10;;;;;;;;;;5072671;28;20850;-61
2023/12/27 00:34:24;;;;;;;2.70;1.20;;;;;;;;;;5072644;28;20439;-60
2023/12/27 00:36:51;;;;;;;8.23;1.55;;;;;;;;;;5072470;28;20446;-61
2023/12/27 00:39:23;;;;;;;6.33;1.00;;;;;;;;;;5072655;28;20281;-60
2023/12/27 00:41:50;;;;;;;3.92;1.55;;;;;;;;;;5072429;28;20857;-60
2023/12/27 00:44:18;;;;;;;6.13;1.67;;;;;;;;;;5072600;28;20249;-60
2023/12/27 00:46:45;;;;;;;4.70;1.93;;;;;;;;;;5072526;28;20506;-60
2023/12/27 00:49:12;;;;;;;5.53;2.53;;;;;;;;;;5072598;28;20529;-61
2023/12/27 00:51:39;;;;;;;8.27;1.70;;;;;;;;;;5072329;28;20554;-60
2023/12/27 00:54:06;;;;;;;10.30;1.57;;;;;;;;;;5072479;28;20479;-62
2023/12/27 00:56:33;;;;;;;5.50;1.30;;;;;;;;;;5072224;28;20472;-61
2023/12/27 00:59:00;;;;;;;10.20;1.93;;;;;;;;;;5072374;28;20562;-60
2023/12/27 01:01:30;;;;;;;7.37;1.30;;;;;;;;;;5072305;28;20444;-60
2023/12/27 01:03:56;;;;;;;4.60;1.20;;;;;;;;;;5072123;28;20486;-61
2023/12/27 01:06:23;;;;;;;8.23;1.87;;;;;;;;;;5072172;28;20530;-61
2023/12/27 01:08:50;;;;;;;5.07;1.40;;;;;;;;;;5075652;28;20538;-61
2023/12/27 01:11:17;;;;;;;7.60;1.60;;;;;;;;;;5075815;28;20443;-60
2023/12/27 01:13:44;;;;;;;4.35;1.55;;;;;;;;;;5075969;28;20449;-60
2023/12/27 01:16:11;;;;;;;9.27;1.67;;;;;;;;;;5075671;28;20272;-61
2023/12/27 01:18:39;;;;;;;3.10;1.40;;;;;;;;;;5075814;28;20536;-60
2023/12/27 01:21:06;;;;;;;7.80;1.70;;;;;;;;;;5075829;28;20546;-60
2023/12/27 01:23:33;;;;;;;3.83;1.10;;;;;;;;;;5075305;28;20451;-61
2023/12/27 01:26:00;;;;;;;11.77;1.60;;;;;;;;;;5075641;28;20451;-60
2023/12/27 01:28:27;;;;;;;5.77;1.40;;;;;;;;;;5075544;28;20479;-61
2023/12/27 01:30:54;;;;;;;2.10;1.30;;;;;;;;;;5075428;28;20449;-60
2023/12/27 01:33:21;;;;;;;8.97;1.50;;;;;;;;;;5075320;28;20809;-61
2023/12/27 01:35:49;;;;;;;4.40;1.40;;;;;;;;;;5075199;28;20495;-61
2023/12/27 01:38:16;;;;;;;3.13;1.93;;;;;;;;;;5075202;28;20440;-61
2023/12/27 01:40:49;;;;;;;6.30;2.37;;;;;;;;;;5075302;28;20531;-60
2023/12/27 01:43:16;;;;;;;4.10;1.50;;;;;;;;;;5075284;28;20956;-61
2023/12/27 01:45:43;;;;;;;2.07;1.20;;;;;;;;;;5075048;28;20479;-60
2023/12/27 01:48:11;;;;;;;11.17;2.63;;;;;;;;;;5075050;28;20482;-61
2023/12/27 01:50:38;;;;;;;6.37;1.63;;;;;;;;;;5074925;28;20493;-61
2023/12/27 01:53:08;;;;;;;8.05;2.83;;;;;;;;;;5074877;28;20454;-61
2023/12/27 01:55:35;;;;;;;6.15;1.17;;;;;;;;;;5075214;28;20267;-60
2023/12/27 01:58:07;;;;;;;4.57;1.70;;;;;;;;;;5074953;28;20276;-61
2023/12/27 02:00:34;;;;;;;9.18;1.98;;;;;;;;;;5074944;28;20444;-60
2023/12/27 02:03:01;;;;;;;6.25;1.40;;;;;;;;;;5074665;28;20191;-60
2023/12/27 02:05:28;;;;;;;9.80;2.20;;;;;;;;;;5074831;28;20584;-60
2023/12/27 02:07:55;;;;;;;7.20;2.37;;;;;;;;;;5075042;28;20534;-60
2023/12/27 02:10:24;;;;;;;7.28;1.27;;;;;;;;;;5074717;28;20444;-61
2023/12/27 02:12:51;;;;;;;6.93;0.98;;;;;;;;;;5075010;28;20228;-60
2023/12/27 02:15:18;;;;;;;4.67;1.50;;;;;;;;;;5074560;28;20232;-60
2023/12/27 02:17:45;;;;;;;6.10;1.90;;;;;;;;;;5074757;28;20530;-60
2023/12/27 02:20:12;;;;;;;7.33;2.60;;;;;;;;;;5074606;28;20447;-60
2023/12/27 02:22:40;;;;;;;3.40;1.70;;;;;;;;;;5074449;28;20534;-60
2023/12/27 02:25:09;;;;;;;9.00;2.00;;;;;;;;;;5074338;28;20483;-61
2023/12/27 02:27:36;;;;;;;4.67;1.47;;;;;;;;;;5074251;28;20534;-60
2023/12/27 02:30:03;;;;;;;12.73;1.40;;;;;;;;;;5074170;28;20901;-60
2023/12/27 02:32:31;;;;;;;12.33;1.70;;;;;;;;;;5074384;28;20447;-60
2023/12/27 02:34:58;;;;;;;6.00;1.33;;;;;;;;;;5074231;28;20448;-61
2023/12/27 02:37:25;;;;;;;6.20;2.20;;;;;;;;;;5074177;28;20454;-61
2023/12/27 02:39:52;;;;;;;3.47;1.67;;;;;;;;;;5074039;28;20443;-61
2023/12/27 02:42:20;;;;;;;3.83;1.00;;;;;;;;;;5073937;28;20450;-60
2023/12/27 02:44:47;;;;;;;8.07;2.30;;;;;;;;;;5073704;28;21068;-61
2023/12/27 02:47:14;;;;;;;4.80;1.30;;;;;;;;;;5074057;28;20189;-61
2023/12/27 02:49:41;;;;;;;3.27;1.27;;;;;;;;;;5073944;28;20539;-60
2023/12/27 02:52:08;;;;;;;8.57;1.30;;;;;;;;;;5073861;28;20998;-60
2023/12/27 02:54:35;;;;;;;3.57;1.57;;;;;;;;;;5073597;28;20503;-61
2023/12/27 02:57:02;;;;;;;3.93;1.63;;;;;;;;;;5073573;28;20443;-61
2023/12/27 02:59:30;;;;;;;11.30;3.47;;;;;;;;;;5073494;28;20527;-60
2023/12/27 03:01:57;;;;;;;5.43;1.50;;;;;;;;;;5074120;28;20463;-60
2023/12/27 03:04:24;;;;;;;5.23;1.47;;;;;;;;;;5073570;28;20478;-60
2023/12/27 03:06:51;;;;;;;5.13;1.87;;;;;;;;;;5073576;28;20452;-61
2023/12/27 03:09:18;;;;;;;6.33;1.83;;;;;;;;;;5073471;28;20513;-60
2023/12/27 03:11:45;;;;;;;8.60;2.17;;;;;;;;;;5074085;28;20564;-60
2023/12/27 03:14:12;;;;;;;9.13;1.47;;;;;;;;;;5073289;28;20534;-60
2023/12/27 03:16:40;;;;;;;6.50;1.30;;;;;;;;;;5073716;28;20478;-60
2023/12/27 03:19:07;;;;;;;3.03;1.47;;;;;;;;;;5073344;28;20443;-61
2023/12/27 03:21:34;;;;;;;2.30;1.37;;;;;;;;;;5073260;28;21026;-61
2023/12/27 03:24:01;;;;;;;1.80;1.10;;;;;;;;;;5073473;28;20538;-60
2023/12/27 03:26:28;;;;;;;8.40;2.30;;;;;;;;;;5073131;28;20451;-60
2023/12/27 03:28:55;;;;;;;7.60;1.40;;;;;;;;;;5073364;28;20193;-60
2023/12/27 03:31:28;;;;;;;5.57;1.95;;;;;;;;;;5072790;28;20856;-60
2023/12/27 03:33:56;;;;;;;4.53;1.17;;;;;;;;;;5073201;28;20196;-60
2023/12/27 03:36:23;;;;;;;4.87;1.50;;;;;;;;;;5073089;28;20448;-60
2023/12/27 03:38:50;;;;;;;5.07;1.87;;;;;;;;;;5072954;28;20874;-61
2023/12/27 03:41:17;;;;;;;4.83;1.40;;;;;;;;;;5073223;28;20538;-60
2023/12/27 03:43:44;;;;;;;7.93;1.30;;;;;;;;;;5073393;28;20439;-60
2023/12/27 03:46:11;;;;;;;7.28;1.38;;;;;;;;;;5073009;28;20487;-61
2023/12/27 03:48:38;;;;;;;7.13;1.97;;;;;;;;;;5072955;28;20280;-61
2023/12/27 03:51:07;;;;;;;3.90;1.47;;;;;;;;;;5072877;28;20534;-60
2023/12/27 03:53:34;;;;;;;7.20;1.33;;;;;;;;;;5072752;28;21025;-60
2023/12/27 03:56:01;;;;;;;6.20;1.23;;;;;;;;;;5072701;28;20471;-61
2023/12/27 03:58:28;;;;;;;9.55;1.63;;;;;;;;;;5073002;28;20470;-60
2023/12/27 04:00:55;;;;;;;4.53;1.30;;;;;;;;;;5072750;28;20192;-61
2023/12/27 04:03:22;;;;;;;14.00;3.43;;;;;;;;;;5072914;28;20849;-60
2023/12/27 04:05:49;;;;;;;7.00;1.33;;;;;;;;;;5072600;28;20885;-61
2023/12/27 04:08:17;;;;;;;7.00;2.60;;;;;;;;;;5072986;28;20455;-60
2023/12/27 04:10:44;;;;;;;13.00;2.10;;;;;;;;;;5072618;28;20451;-60
2023/12/27 04:13:11;;;;;;;7.40;1.65;;;;;;;;;;5072836;28;20443;-60
2023/12/27 04:15:38;;;;;;;3.93;1.40;;;;;;;;;;5072776;28;20277;-60
2023/12/27 04:18:07;;;;;;;8.50;1.33;;;;;;;;;;5073124;28;20860;-60
2023/12/27 04:20:34;;;;;;;2.80;1.37;;;;;;;;;;5072548;28;20443;-61
2023/12/27 04:23:01;;;;;;;9.70;1.90;;;;;;;;;;5072793;28;20554;-60
2023/12/27 04:25:29;;;;;;;2.90;1.60;;;;;;;;;;5072635;28;20494;-60
2023/12/27 04:27:56;;;;;;;6.40;1.53;;;;;;;;;;5072792;28;20447;-61
2023/12/27 04:30:23;;;;;;;10.77;1.40;;;;;;;;;;5072538;28;20478;-61
2023/12/27 04:32:50;;;;;;;4.93;1.70;;;;;;;;;;5072491;28;20444;-61
2023/12/27 04:35:17;;;;;;;2.03;1.63;;;;;;;;;;5072390;28;20452;-60
2023/12/27 04:37:44;;;;;;;10.10;1.20;;;;;;;;;;5072672;28;21014;-60
2023/12/27 04:40:11;;;;;;;5.37;1.67;;;;;;;;;;5072836;28;20534;-60
2023/12/27 04:42:39;;;;;;;2.30;1.20;;;;;;;;;;5074398;28;20490;-61
2023/12/27 04:45:07;;;;;;;5.17;1.50;;;;;;;;;;5076209;28;20899;-60
2023/12/27 04:47:33;;;;;;;6.53;2.00;;;;;;;;;;5076067;28;20439;-61
2023/12/27 04:50:00;;;;;;;2.60;1.43;;;;;;;;;;5076610;28;20458;-60
2023/12/27 04:52:27;;;;;;;3.97;1.10;;;;;;;;;;5076234;28;20439;-61
2023/12/27 04:54:54;;;;;;;9.30;2.10;;;;;;;;;;5075945;28;20581;-61
2023/12/27 04:57:21;;;;;;;9.70;1.07;;;;;;;;;;5076281;28;20449;-60
2023/12/27 04:59:49;;;;;;;5.50;1.33;;;;;;;;;;5075904;28;20538;-60
2023/12/27 05:02:16;;;;;;;6.83;1.33;;;;;;;;;;5075897;28;20885;-61
2023/12/27 05:04:43;;;;;;;2.80;1.60;;;;;;;;;;5075953;28;20475;-61
2023/12/27 05:07:10;;;;;;;5.73;1.63;;;;;;;;;;5075989;28;20878;-60
2023/12/27 05:09:37;;;;;;;6.33;1.67;;;;;;;;;;5075894;28;20474;-61
2023/12/27 05:12:05;;;;;;;2.30;1.47;;;;;;;;;;5075769;28;20868;-61
2023/12/27 05:14:32;;;;;;;5.50;1.77;;;;;;;;;;5075632;28;20526;-61
2023/12/27 05:17:01;;;;;;;3.70;1.47;;;;;;;;;;5076046;28;20443;-60
2023/12/27 05:19:28;;;;;;;3.13;1.30;;;;;;;;;;5075788;28;20541;-60
2023/12/27 05:21:55;;;;;;;9.67;1.50;;;;;;;;;;5075693;28;20526;-60
2023/12/27 05:24:21;;;;;;;4.57;1.43;;;;;;;;;;5075387;28;20978;-61
2023/12/27 05:26:48;;;;;;;5.87;1.53;;;;;;;;;;5075453;28;20489;-61
2023/12/27 05:29:14;;;;;;;8.10;1.30;;;;;;;;;;5075348;28;20538;-61
2023/12/27 05:31:41;;;;;;;6.70;1.37;;;;;;;;;;5075624;28;20491;-60
2023/12/27 05:34:10;;;;;;;3.30;1.10;;;;;;;;;;5075456;28;20482;-60
2023/12/27 05:36:36;;;;;;;4.10;1.43;;;;;;;;;;5075186;28;20526;-61
2023/12/27 05:39:04;;;;;;;5.63;2.23;;;;;;;;;;5075293;28;20443;-60
2023/12/27 05:41:31;;;;;;;6.77;1.30;;;;;;;;;;5075331;28;21023;-60
2023/12/27 05:43:58;;;;;;;2.93;1.47;;;;;;;;;;5075034;28;20531;-60
2023/12/27 05:46:25;;;;;;;2.60;1.23;;;;;;;;;;5075252;28;20483;-60
2023/12/27 05:48:52;;;;;;;4.60;1.40;;;;;;;;;;5075148;28;20440;-60
2023/12/27 05:51:20;;;;;;;4.20;1.77;;;;;;;;;;5075060;28;20445;-60
2023/12/27 05:53:47;;;;;;;4.93;1.37;;;;;;;;;;5074532;28;21002;-60
2023/12/27 05:56:14;;;;;;;4.70;1.43;;;;;;;;;;5074876;28;20468;-61
2023/12/27 05:58:41;;;;;;;8.97;1.10;;;;;;;;;;5075063;28;20442;-60
2023/12/27 06:01:09;;;;;;;5.27;1.30;;;;;;;;;;5074926;28;20873;-60
2023/12/27 06:03:36;;;;;;;4.83;1.33;;;;;;;;;;5074682;28;20444;-60
2023/12/27 06:06:03;;;;;;;5.80;1.23;;;;;;;;;;5074655;28;20820;-60
2023/12/27 06:08:31;;;;;;;4.50;1.63;;;;;;;;;;5074827;28;20530;-60
2023/12/27 06:10:58;;;;;;;5.83;1.67;;;;;;;;;;5074542;28;20538;-60
2023/12/27 06:13:25;;;;;;;6.93;1.53;;;;;;;;;;5075026;28;20446;-60
2023/12/27 06:15:52;;;;;;;8.40;1.17;;;;;;;;;;5074656;28;20530;-60
2023/12/27 06:18:19;;;;;;;6.00;1.35;;;;;;;;;;5074350;28;20934;-60
2023/12/27 06:20:46;;;;;;;7.07;1.70;;;;;;;;;;5074336;28;20189;-60
2023/12/27 06:23:13;;;;;;;3.77;1.50;;;;;;;;;;5074303;28;20443;-60
2023/12/27 06:25:41;;;;;;;2.40;1.10;;;;;;;;;;5074156;28;20562;-61
2023/12/27 06:28:08;;;;;;;4.03;2.13;;;;;;;;;;5074278;28;20452;-60
2023/12/27 06:30:36;;;;;;;6.90;1.33;;;;;;;;;;5074307;28;20486;-60
2023/12/27 06:33:03;;;;;;;7.60;1.93;;;;;;;;;;5074274;28;20448;-60
2023/12/27 06:35:30;;;;;;;6.13;1.50;;;;;;;;;;5074400;28;20531;-60
2023/12/27 06:37:57;;;;;;;7.03;1.20;;;;;;;;;;5074028;28;20501;-61
2023/12/27 06:40:24;;;;;;;4.20;1.50;;;;;;;;;;5074270;28;20799;-60
2023/12/27 06:42:52;;;;;;;5.80;2.03;;;;;;;;;;5074104;28;20278;-60
2023/12/27 06:45:19;;;;;;;6.27;1.80;;;;;;;;;;5073918;28;20471;-61
2023/12/27 06:47:46;;;;;;;3.23;1.40;;;;;;;;;;5073903;28;20454;-61
2023/12/27 06:50:13;;;;;;;7.03;1.67;;;;;;;;;;5073862;28;20448;-60
2023/12/27 06:52:40;;;;;;;4.05;1.23;;;;;;;;;;5073704;28;20451;-61
2023/12/27 06:55:08;;;;;;;8.30;1.90;;;;;;;;;;5073687;28;20576;-60
2023/12/27 06:57:35;;;;;;;7.18;1.67;;;;;;;;;;5073766;28;20452;-60
2023/12/27 07:00:04;;;;;;;8.07;1.80;;;;;;;;;;5073749;28;20186;-61
2023/12/27 07:02:31;;;;;;;5.80;1.50;;;;;;;;;;5073678;28;20819;-60
2023/12/27 07:04:58;;;;;;;5.97;1.23;;;;;;;;;;5072698;28;20194;-61
2023/12/27 07:07:26;;;;;;;4.73;1.60;;;;;;;;;;5073783;28;20602;-61
2023/12/27 07:09:53;;;;;;;3.33;1.43;;;;;;;;;;5073663;28;20447;-60
2023/12/27 07:12:22;;;;;;;8.13;1.90;;;;;;;;;;5073659;28;20443;-60
2023/12/27 07:14:50;;;;;;;4.57;1.37;;;;;;;;;;5073463;28;20443;-61
2023/12/27 07:17:20;;;;;;;6.30;1.70;;;;;;;;;;5073397;28;20455;-60
2023/12/27 07:19:47;;;;;;;6.90;1.50;;;;;;;;;;5073269;28;20445;-60
2023/12/27 07:22:14;;;;;;;5.03;1.37;;;;;;;;;;5073199;28;20283;-60
2023/12/27 07:24:41;;;;;;;9.80;2.13;;;;;;;;;;5073111;28;20447;-60
2023/12/27 07:27:09;;;;;;;6.13;1.20;;;;;;;;;;5073200;28;20489;-60
2023/12/27 07:29:37;;;;;;;3.07;1.60;;;;;;;;;;5073195;28;20451;-60
2023/12/27 07:32:04;;;;;;;2.97;1.20;;;;;;;;;;5073091;28;20444;-61
2023/12/27 07:34:33;;;;;;;5.20;1.17;;;;;;;;;;5073289;28;20526;-60
2023/12/27 07:37:00;;;;;;;7.73;1.73;;;;;;;;;;5073273;28;20538;-60
2023/12/27 07:39:27;;;;;;;6.97;1.97;;;;;;;;;;5073108;28;20879;-60
2023/12/27 07:41:54;;;;;;;4.53;1.33;;;;;;;;;;5073018;28;20834;-60
2023/12/27 07:44:22;;;;;;;3.43;1.50;;;;;;;;;;5072972;28;20444;-60
2023/12/27 07:46:49;;;;;;;4.97;1.47;;;;;;;;;;5072981;28;20479;-60
2023/12/27 07:49:16;;;;;;;7.65;2.00;;;;;;;;;;5073091;28;20475;-60
2023/12/27 07:51:44;;;;;;;5.27;1.33;;;;;;;;;;5073058;28;20185;-60
2023/12/27 07:54:11;;;;;;;10.17;6.03;;;;;;;;;;5072762;28;20470;-61
2023/12/27 07:56:38;;;;;;;7.95;5.00;;;;;;;;;;5072887;28;20450;-61
2023/12/27 07:59:05;;;;;;;11.63;3.87;;;;;;;;;;5072801;28;20613;-60
2023/12/27 08:01:33;;;;;;;5.10;2.73;;;;;;;;;;5072650;28;20443;-60
2023/12/27 08:04:00;;;;;;;3.33;1.80;;;;;;;;;;5072952;28;20534;-60
2023/12/27 08:06:27;;;;;;;6.60;2.40;;;;;;;;;;5072723;28;20483;-60
2023/12/27 08:08:56;;;;;;;3.17;2.87;;;;;;;;;;5072805;28;20458;-60
2023/12/27 08:11:23;;;;;;;5.57;2.17;;;;;;;;;;5072591;28;20451;-60
2023/12/27 08:13:50;;;;;;;4.43;2.10;;;;;;;;;;5072549;28;20531;-61
2023/12/27 08:16:17;;;;;;;3.60;1.90;;;;;;;;;;5074258;28;20645;-60
2023/12/27 08:18:44;;;;;;;5.63;2.50;;;;;;;;;;5076665;28;20447;-60
2023/12/27 08:21:11;;;;;;;4.20;1.87;;;;;;;;;;5076755;28;20529;-61
2023/12/27 08:23:38;;;;;;;3.47;2.03;;;;;;;;;;5076646;28;20526;-60
2023/12/27 08:26:07;;;;;;;3.20;1.40;;;;;;;;;;5076727;28;20471;-60
2023/12/27 08:28:34;;;;;;;3.00;2.20;;;;;;;;;;5076295;28;20451;-60
2023/12/27 08:31:01;;;;;;;4.37;1.97;;;;;;;;;;5076663;28;20444;-60
2023/12/27 08:33:30;;;;;;;6.83;3.07;;;;;;;;;;5076507;28;20534;-60
2023/12/27 08:35:57;;;;;;;6.13;2.20;;;;;;;;;;5076416;28;20481;-60
2023/12/27 08:38:25;;;;;;;2.80;2.27;;;;;;;;;;5076381;28;20272;-60
2023/12/27 08:40:52;;;;;;;6.30;3.00;;;;;;;;;;5076211;28;20810;-61
2023/12/27 08:43:20;;;;;;;5.50;2.30;;;;;;;;;;5076105;28;21018;-60
2023/12/27 08:45:47;;;;;;;6.63;2.23;;;;;;;;;;5076192;28;20534;-60
2023/12/27 08:48:14;;;;;;;4.00;1.73;;;;;;;;;;5076374;28;20443;-61
2023/12/27 08:50:43;;;;;;;10.03;2.40;;;;;;;;;;5076043;28;20533;-60
2023/12/27 08:53:11;;;;;;;4.10;1.90;;;;;;;;;;5076000;28;20477;-60
2023/12/27 08:55:38;;;;;;;3.50;1.70;;;;;;;;;;5075809;28;20498;-61
2023/12/27 08:58:05;;;;;;;3.55;1.83;;;;;;;;;;5076118;28;20443;-60
2023/12/27 09:00:34;;;;;;;5.63;2.00;;;;;;;;;;5076047;28;20193;-60
2023/12/27 09:03:01;;;;;;;6.00;2.10;;;;;;;;;;5075919;28;20440;-61
2023/12/27 09:05:28;;;;;;;10.10;2.60;;;;;;;;;;5075757;28;20542;-60
2023/12/27 09:07:55;;;;;;;5.23;3.13;;;;;;;;;;5075925;28;20565;-60
2023/12/27 09:10:23;;;;;;;6.30;3.50;;;;;;;;;;5075986;28;20530;-60
2023/12/27 09:12:50;;;;;;;7.73;3.60;;;;;;;;;;5075781;28;20447;-60
2023/12/27 09:15:17;;;;;;;10.20;3.57;;;;;;;;;;5075606;28;20461;-61
2023/12/27 09:17:45;;;;;;;7.20;2.50;;;;;;;;;;5075650;28;20447;-60
2023/12/27 09:20:12;;;;;;;9.07;3.30;;;;;;;;;;5075579;28;20442;-61
2023/12/27 09:22:39;;;;;;;4.70;2.40;;;;;;;;;;5075560;28;20530;-61
2023/12/27 09:25:06;;;;;;;3.80;2.37;;;;;;;;;;5075563;28;20530;-60
2023/12/27 09:27:33;;;;;;;7.43;3.20;;;;;;;;;;5074818;28;20536;-60
2023/12/27 09:30:00;;;;;;;6.33;2.37;;;;;;;;;;5075238;28;20527;-61
2023/12/27 09:32:27;;;;;;;5.83;2.47;;;;;;;;;;5075271;28;20554;-61
2023/12/27 09:34:55;;;;;;;5.77;2.40;;;;;;;;;;5075007;28;20439;-61
2023/12/27 09:37:22;;;;;;;6.87;2.07;;;;;;;;;;5075415;28;20885;-61
2023/12/27 09:39:49;;;;;;;4.07;1.97;;;;;;;;;;5074867;28;20998;-61
2023/12/27 09:42:17;;;;;;;3.23;1.93;;;;;;;;;;5075267;28;20443;-61
2023/12/27 09:44:44;;;;;;;5.00;1.67;;;;;;;;;;5075065;28;20452;-61
2023/12/27 09:47:13;;;;;;;1.83;1.60;;;;;;;;;;5075024;28;20485;-61
2023/12/27 09:49:40;;;;;;;5.30;2.70;;;;;;;;;;5074858;28;20489;-61
2023/12/27 09:52:09;;;;;;;4.70;1.83;;;;;;;;;;5074847;28;20447;-61
2023/12/27 09:54:36;;;;;;;6.30;2.30;;;;;;;;;;5074828;28;20550;-61
2023/12/27 09:57:04;;;;;;;9.40;3.03;;;;;;;;;;5074895;28;20527;-61
2023/12/27 09:59:31;;;;;;;2.97;1.73;;;;;;;;;;5074839;28;20450;-61
2023/12/27 10:02:01;;;;;;;8.07;2.00;;;;;;;;;;5074779;28;20547;-61
2023/12/27 10:04:37;;;;;;;8.20;3.20;;;;;;;;;;5074673;28;20867;-62
2023/12/27 10:07:05;;;;;;;4.00;1.87;;;;;;;;;;5074764;28;20597;-61
2023/12/27 10:09:34;;;;;;;4.50;2.00;;;;;;;;;;5074620;28;20443;-61
2023/12/27 10:12:01;;;;;;;4.70;3.17;;;;;;;;;;5074602;28;20455;-61
2023/12/27 10:14:29;;;;;;;6.67;1.80;;;;;;;;;;5074534;28;20469;-61
2023/12/27 10:16:58;;;;;;;9.13;3.00;;;;;;;;;;5074116;28;20530;-61
2023/12/27 10:19:46;;;;;;;6.23;2.17;;;;;;;;;;5074513;28;20531;-61
2023/12/27 10:22:13;;;;;;;3.10;1.50;;;;;;;;;;5070971;28;20536;-61
2023/12/27 10:24:42;;;;;;;7.37;1.80;;;;;;;;;;5074373;28;20496;-61
2023/12/27 10:27:09;;;;;;;12.23;2.30;;;;;;;;;;5074078;28;20562;-61
2023/12/27 10:29:36;;;;;;;4.47;2.20;;;;;;;;;;5074340;28;20534;-60
2023/12/27 10:32:07;;;;;;;5.43;2.00;;;;;;;;;;5074274;28;20485;-61
2023/12/27 10:34:34;;;;;;;5.97;2.10;;;;;;;;;;5074132;28;20455;-61
2023/12/27 10:37:04;;;;;;;7.00;2.47;;;;;;;;;;5074452;28;20474;-61
2023/12/27 10:39:31;;;;;;;5.53;2.50;;;;;;;;;;5074108;28;20465;-61
2023/12/27 10:41:59;;;;;;;5.60;2.20;;;;;;;;;;5074119;28;20534;-60
2023/12/27 10:44:26;;;;;;;7.13;2.70;;;;;;;;;;5074068;28;20859;-61
2023/12/27 10:46:54;;;;;;;4.00;2.00;;;;;;;;;;5073895;28;20481;-61
2023/12/27 10:49:24;;;;;;;4.50;2.00;;;;;;;;;;5073847;28;20849;-61
2023/12/27 10:51:52;;;;;;;4.47;2.03;;;;;;;;;;5073747;28;20565;-61
2023/12/27 10:54:21;;;;;;;7.27;2.20;;;;;;;;;;5073555;28;20538;-61
2023/12/27 10:56:48;;;;;;;7.53;1.87;;;;;;;;;;5073898;28;20454;-61
2023/12/27 10:59:17;;;;;;;8.30;2.30;;;;;;;;;;5073546;28;20562;-61
2023/12/27 11:01:44;;;;;;;11.53;2.03;;;;;;;;;;5073480;28;20470;-61
2023/12/27 11:04:11;;;;;;;6.83;2.87;;;;;;;;;;5073383;28;20539;-61
2023/12/27 11:06:39;;;;;;;4.20;1.73;;;;;;;;;;5073226;28;20479;-61
2023/12/27 11:09:07;;;;;;;6.37;2.30;;;;;;;;;;5073798;28;20447;-61
2023/12/27 11:11:35;;;;;;;7.60;1.70;;;;;;;;;;5073318;28;20444;-60
2023/12/27 11:14:05;;;;;;;7.50;1.53;;;;;;;;;;5073461;28;20535;-60
2023/12/27 11:16:34;;;;;;;9.43;2.50;;;;;;;;;;5073142;28;20814;-61
2023/12/27 11:19:02;;;;;;;7.20;1.70;;;;;;;;;;5073167;28;20455;-61
2023/12/27 11:21:29;;;;;;;6.20;2.40;;;;;;;;;;5073038;28;20508;-61
2023/12/27 11:23:56;;;;;;;8.13;1.73;;;;;;;;;;5073227;28;20535;-61
2023/12/27 11:26:23;;;;;;;12.60;2.50;;;;;;;;;;5073151;28;20450;-61
2023/12/27 11:28:51;;;;;;;5.83;1.90;;;;;;;;;;5073091;28;20443;-61
2023/12/27 11:31:19;;;;;;;11.03;2.63;;;;;;;;;;5072915;28;20803;-60
2023/12/27 11:33:47;;;;;;;7.63;2.27;;;;;;;;;;5072911;28;20443;-61
2023/12/27 11:36:16;;;;;;;1.93;1.70;;;;;;;;;;5073225;28;20451;-60
2023/12/27 11:38:46;;;;;;;7.77;2.97;;;;;;;;;;5073053;28;20481;-61
2023/12/27 11:41:13;;;;;;;5.63;2.10;;;;;;;;;;5073104;28;20942;-61
2023/12/27 11:43:51;;;;;;;3.03;2.03;;;;;;;;;;5072969;28;20451;-60
2023/12/27 11:46:25;;;;;;;15.40;3.13;;;;;;;;;;5072805;28;20802;-61
2023/12/27 11:48:54;;;;;;;6.20;1.53;;;;;;;;;;5073143;28;20534;-60
2023/12/27 11:51:32;;;;;;;3.13;1.70;;;;;;;;;;5072347;28;20942;-61
2023/12/27 11:53:59;;;;;;;4.47;1.80;;;;;;;;;;5073012;28;20934;-61
2023/12/27 11:56:29;;;;;;;4.60;2.23;;;;;;;;;;5072712;28;20494;-61
2023/12/27 11:58:56;;;;;;;5.47;2.47;;;;;;;;;;5072718;28;20451;-61
2023/12/27 12:01:27;;;;;;;10.90;1.93;;;;;;;;;;5072921;28;20530;-61
2023/12/27 12:04:03;;;;;;;3.00;1.50;;;;;;;;;;5073095;28;20531;-61
2023/12/27 12:06:39;;;;;;;4.90;2.00;;;;;;;;;;5072790;28;20521;-60
2023/12/27 12:09:07;;;;;;;11.70;2.60;;;;;;;;;;5072738;28;20917;-62
2023/12/27 12:11:35;;;;;;;10.70;2.17;;;;;;;;;;5072592;28;20489;-61
2023/12/27 12:14:02;;;;;;;3.90;1.40;;;;;;;;;;5072712;28;20443;-60
2023/12/27 12:16:32;;;;;;;4.67;1.70;;;;;;;;;;5072712;28;20553;-60
2023/12/27 12:19:00;;;;;;;4.83;2.00;;;;;;;;;;5072632;28;20454;-61
2023/12/27 12:21:28;;;;;;;3.53;1.70;;;;;;;;;;5072513;28;20543;-61
2023/12/27 12:23:55;;;;;;;7.63;2.40;;;;;;;;;;5072551;28;20451;-61
2023/12/27 12:26:22;;;;;;;6.77;3.33;;;;;;;;;;5072726;28;20478;-61
2023/12/27 12:28:55;;;;;;;9.63;2.37;;;;;;;;;;5072744;28;20483;-61
2023/12/27 12:31:22;;;;;;;6.30;1.80;;;;;;;;;;5072553;28;20843;-61
2023/12/27 12:33:49;;;;;;;8.93;1.60;;;;;;;;;;5072435;28;20856;-61
2023/12/27 12:36:18;;;;;;;17.93;2.27;;;;;;;;;;5072358;28;20493;-61
2023/12/27 12:38:45;;;;;;;10.00;3.50;;;;;;;;;;5072472;28;20447;-61
2023/12/27 12:41:12;;;;;;;11.43;2.73;;;;;;;;;;5072558;28;20909;-61
2023/12/27 12:43:39;;;;;;;8.37;1.90;;;;;;;;;;5072499;28;20443;-61
2023/12/27 12:46:07;;;;;;;8.23;2.00;;;;;;;;;;5072325;28;20465;-61
2023/12/27 12:48:36;;;;;;;2.90;2.07;;;;;;;;;;5072324;28;20479;-61
2023/12/27 12:51:12;;;;;;;5.13;1.90;;;;;;;;;;5072114;28;20530;-60
2023/12/27 12:53:40;;;;;;;6.23;2.37;;;;;;;;;;5072411;28;20447;-61
2023/12/27 12:56:08;;;;;;;5.60;2.33;;;;;;;;;;5072155;28;20570;-60
2023/12/27 12:58:35;;;;;;;4.70;1.90;;;;;;;;;;5072223;28;20872;-60
2023/12/27 13:01:02;;;;;;;6.03;1.83;;;;;;;;;;5072207;28;20879;-60
2023/12/27 13:03:30;;;;;;;3.87;2.20;;;;;;;;;;5073705;28;20848;-61
2023/12/27 13:05:57;;;;;;;7.80;1.53;;;;;;;;;;5076053;28;20869;-61
2023/12/27 13:08:24;;;;;;;3.20;1.90;;;;;;;;;;5075758;28;20648;-60
2023/12/27 13:10:52;;;;;;;7.93;1.77;;;;;;;;;;5075831;28;20554;-61
2023/12/27 13:13:19;;;;;;;5.70;2.20;;;;;;;;;;5075598;28;20454;-60
2023/12/27 13:15:46;;;;;;;7.60;2.03;;;;;;;;;;5075463;28;20444;-62
2023/12/27 13:18:13;;;;;;;7.97;2.83;;;;;;;;;;5075445;28;20443;-61
2023/12/27 13:20:40;;;;;;;6.30;1.83;;;;;;;;;;5075742;28;21014;-60
2023/12/27 13:23:07;;;;;;;3.37;1.60;;;;;;;;;;5075950;28;20443;-60
2023/12/27 13:25:35;;;;;;;1.67;1.40;;;;;;;;;;5075545;28;20954;-61
2023/12/27 13:28:03;;;;;;;4.43;2.00;;;;;;;;;;5075309;28;20486;-60
2023/12/27 13:30:30;;;;;;;5.37;2.30;;;;;;;;;;5075215;28;20454;-61
2023/12/27 13:32:58;;;;;;;4.63;1.63;;;;;;;;;;5075549;28;20447;-60
2023/12/27 13:35:27;;;;;;;5.47;2.83;;;;;;;;;;5075459;28;20572;-60
2023/12/27 13:37:54;;;;;;;11.57;4.73;;;;;;;;;;5075137;28;20974;-61
2023/12/27 13:40:22;;;;;;;8.70;3.87;;;;;;;;;;5075550;28;20534;-61
2023/12/27 13:42:49;;;;;;;4.30;2.17;;;;;;;;;;5075100;28;20512;-61
2023/12/27 13:45:18;;;;;;;4.53;1.43;;;;;;;;;;5075032;28;20450;-61
2023/12/27 13:47:44;;;;;;;3.23;1.53;;;;;;;;;;5075231;28;20475;-60
2023/12/27 13:50:11;;;;;;;6.00;1.97;;;;;;;;;;5075058;28;20538;-60
2023/12/27 13:52:38;;;;;;;6.73;1.70;;;;;;;;;;5074982;28;20539;-61
2023/12/27 13:55:06;;;;;;;6.23;1.80;;;;;;;;;;5074735;28;21055;-60
2023/12/27 13:57:33;;;;;;;6.53;2.13;;;;;;;;;;5074776;28;20451;-61
2023/12/27 14:00:00;;;;;;;17.33;3.90;;;;;;;;;;5074699;28;21002;-61
2023/12/27 14:02:28;;;;;;;4.10;2.00;;;;;;;;;;5074698;28;20887;-60
2023/12/27 14:04:55;;;;;;;2.20;1.90;;;;;;;;;;5074743;28;20469;-61
2023/12/27 14:07:24;;;;;;;7.93;2.60;;;;;;;;;;5074882;28;20544;-61
2023/12/27 14:09:51;;;;;;;3.83;2.60;;;;;;;;;;5074654;28;20444;-61
2023/12/27 14:12:18;;;;;;;9.13;2.83;;;;;;;;;;5074451;28;20858;-60
2023/12/27 14:14:45;;;;;;;6.73;3.60;;;;;;;;;;5074326;28;20451;-61
2023/12/27 14:17:12;;;;;;;7.30;3.43;;;;;;;;;;5074576;28;20907;-61
2023/12/27 14:19:40;;;;;;;5.33;2.60;;;;;;;;;;5074447;28;20444;-60
2023/12/27 14:22:07;;;;;;;4.30;2.80;;;;;;;;;;5074248;28;20950;-60
2023/12/27 14:24:34;;;;;;;6.77;3.77;;;;;;;;;;5074299;28;20493;-60
2023/12/27 14:27:01;;;;;;;6.30;4.03;;;;;;;;;;5074157;28;20518;-61
2023/12/27 14:29:28;;;;;;;8.27;4.30;;;;;;;;;;5074245;28;20494;-60
2023/12/27 14:31:55;;;;;;;2.93;2.60;;;;;;;;;;5074314;28;20961;-60
2023/12/27 14:34:22;;;;;;;5.73;2.60;;;;;;;;;;5074219;28;20477;-60
2023/12/27 14:36:50;;;;;;;5.93;2.90;;;;;;;;;;5074036;28;20871;-60
2023/12/27 14:39:17;;;;;;;7.50;3.10;;;;;;;;;;5073936;28;20448;-61
2023/12/27 14:41:45;;;;;;;4.60;2.10;;;;;;;;;;5074114;28;20522;-61
2023/12/27 14:44:12;;;;;;;5.60;3.13;;;;;;;;;;5074036;28;20451;-60